Time;durP1;ratioP1;P1;durP2;ratioP2;P2;SDS_P1;SDS_P2;PMS_P1;PMS_P2;Temp;Humidity;BMP_temperature;BMP_pressure;BME280_temperature;BME280_humidity;BME280_pressure;Samples;Min_cycle;Max_cycle;Signal;HPM_P1;HPM_P2
2022/07/29 00:00:03;;;;;;;0.30;0.30;;;;;;;22.43;66.26;95378.97;4291130;33;20205;-49
2022/07/29 00:02:53;;;;;;;0.40;0.40;;;;;;;22.39;65.97;95378.94;4296649;33;20246;-51
2022/07/29 00:05:19;;;;;;;0.60;0.33;;;;;;;22.38;65.95;95374.66;4282064;33;20202;-50
2022/07/29 00:07:44;;;;;;;0.33;0.33;;;;;;;22.45;66.47;95377.44;4280796;33;20242;-54
2022/07/29 00:10:10;;;;;;;0.40;0.40;;;;;;;22.43;66.08;95374.34;4289448;33;20238;-54
2022/07/29 00:13:06;;;;;;;0.73;0.50;;;;;;;22.49;66.26;95377.47;4272919;33;20213;-52
2022/07/29 00:15:31;;;;;;;0.10;0.10;;;;;;;22.34;66.03;95379.25;4281315;33;20213;-52
2022/07/29 00:18:06;;;;;;;0.20;0.20;;;;;;;22.39;66.85;95378.12;4287237;33;20198;-51
2022/07/29 00:20:31;;;;;;;0.60;0.60;;;;;;;22.40;66.79;95379.69;4282201;33;20209;-53
2022/07/29 00:22:57;;;;;;;0.40;0.40;;;;;;;22.40;66.83;95383.19;4279903;33;20237;-53
2022/07/29 00:25:22;;;;;;;0.20;0.20;;;;;;;22.41;66.95;95373.94;4296373;33;20195;-52
2022/07/29 00:28:09;;;;;;;0.10;0.10;;;;;;;22.43;66.79;95373.56;4298445;33;20198;-51
2022/07/29 00:30:35;;;;;;;0.20;0.20;;;;;;;22.49;67.08;95377.47;4282697;33;20204;-53
2022/07/29 00:33:10;;;;;;;0.10;0.10;;;;;;;22.48;67.07;95376.69;4287712;33;20214;-52
2022/07/29 00:35:44;;;;;;;0.40;0.40;;;;;;;22.42;66.78;95372.78;4291438;33;20257;-52
2022/07/29 00:38:16;;;;;;;0.30;0.30;;;;;;;22.36;66.80;95368.84;4291034;33;20204;-50
2022/07/29 00:41:25;;;;;;;0.23;0.23;;;;;;;22.38;67.00;95369.25;4292042;33;20198;-49
2022/07/29 00:43:51;;;;;;;0.30;0.30;;;;;;;22.36;66.51;95370.75;4273247;33;20212;-51
2022/07/29 00:46:16;;;;;;;0.47;0.47;;;;;;;22.46;66.54;95362.00;4282725;33;20198;-50
2022/07/29 00:48:41;;;;;;;0.20;0.20;;;;;;;22.42;66.11;95356.56;4286838;33;20243;-53
2022/07/29 00:51:07;;;;;;;0.20;0.20;;;;;;;22.41;65.93;95354.22;4292930;33;20344;-51
2022/07/29 00:53:33;;;;;;;0.23;0.23;;;;;;;22.44;65.85;95340.75;4282684;33;20207;-51
2022/07/29 00:55:59;;;;;;;0.20;0.20;;;;;;;22.45;65.47;95341.50;4287832;33;20191;-51
2022/07/29 00:58:26;;;;;;;0.87;0.50;;;;;;;22.43;65.27;95333.78;4280199;33;20210;-51
2022/07/29 01:00:52;;;;;;;0.30;0.30;;;;;;;22.48;65.34;95332.66;4283577;33;20190;-52
2022/07/29 01:03:18;;;;;;;0.20;0.20;;;;;;;22.45;63.60;95330.69;4269019;33;20209;-59
2022/07/29 01:05:45;;;;;;;0.43;0.10;;;;;;;22.44;64.33;95327.22;4284352;33;20203;-52
2022/07/29 01:08:12;;;;;;;0.47;0.47;;;;;;;22.44;64.10;95329.94;4290765;33;20232;-49
2022/07/29 01:10:40;;;;;;;0.33;0.33;;;;;;;22.50;65.02;95324.97;4295765;33;20269;-52
2022/07/29 01:13:07;;;;;;;0.20;0.20;;;;;;;22.53;64.48;95325.00;4282194;33;20264;-51
2022/07/29 01:15:40;;;;;;;0.30;0.30;;;;;;;22.57;64.63;95319.63;4286507;33;20271;-52
2022/07/29 01:18:26;;;;;;;0.60;0.60;;;;;;;22.52;63.87;95323.44;4279914;33;20190;-52
2022/07/29 01:20:57;;;;;;;0.37;0.37;;;;;;;22.54;64.08;95323.06;4288470;33;20249;-51
2022/07/29 01:23:47;;;;;;;0.40;0.27;;;;;;;22.58;64.07;95326.59;4287246;33;20203;-52
2022/07/29 01:26:31;;;;;;;0.43;0.43;;;;;;;22.56;63.78;95329.69;4282439;33;20229;-53
2022/07/29 01:29:07;;;;;;;0.00;0.00;;;;;;;22.60;63.93;95321.59;4285594;33;20217;-52
2022/07/29 01:31:51;;;;;;;0.10;0.10;;;;;;;22.58;63.52;95316.56;4281594;33;20297;-52
2022/07/29 01:34:23;;;;;;;0.40;0.40;;;;;;;22.63;64.01;95318.16;4280908;33;20206;-52
2022/07/29 01:36:55;;;;;;;0.00;0.00;;;;;;;22.60;63.80;95319.69;4288681;33;20274;-51
2022/07/29 01:39:29;;;;;;;0.30;0.30;;;;;;;22.63;63.88;95318.94;4279324;33;20206;-50
2022/07/29 01:42:13;;;;;;;0.40;0.40;;;;;;;22.54;62.06;95315.75;4296388;33;20186;-52
2022/07/29 01:44:50;;;;;;;0.50;0.50;;;;;;;22.54;62.88;95317.66;4294183;33;20323;-53
2022/07/29 01:47:20;;;;;;;0.00;0.00;;;;;;;22.48;63.72;95311.81;4289127;33;20189;-52
2022/07/29 01:49:50;;;;;;;0.40;0.40;;;;;;;22.49;63.52;95313.34;4271611;33;20186;-54
2022/07/29 01:52:23;;;;;;;0.20;0.20;;;;;;;22.47;62.93;95310.25;4269954;33;20187;-51
2022/07/29 01:54:54;;;;;;;0.30;0.30;;;;;;;22.53;63.08;95322.28;4268166;33;20313;-54
2022/07/29 01:57:24;;;;;;;0.40;0.40;;;;;;;22.52;63.21;95320.75;4274126;33;20211;-53
2022/07/29 01:59:51;;;;;;;0.20;0.20;;;;;;;22.51;63.30;95308.38;4281907;33;20194;-54
2022/07/29 02:02:18;;;;;;;0.10;0.10;;;;;;;22.49;62.53;95307.94;4284865;33;20217;-52
2022/07/29 02:04:48;;;;;;;0.20;0.20;;;;;;;22.52;63.16;95304.50;4289065;33;20194;-52
2022/07/29 02:07:17;;;;;;;0.33;0.33;;;;;;;22.52;62.50;95304.50;4280396;33;20202;-52
2022/07/29 02:09:45;;;;;;;0.10;0.10;;;;;;;22.52;63.05;95301.03;4286694;33;20185;-53
2022/07/29 02:12:13;;;;;;;0.40;0.33;;;;;;;22.55;63.57;95301.06;4295894;33;20297;-54
2022/07/29 02:14:44;;;;;;;0.50;0.33;;;;;;;22.51;62.61;95299.47;4284594;33;20273;-51
2022/07/29 02:17:12;;;;;;;0.03;0.03;;;;;;;22.56;62.85;95299.94;4275579;33;20191;-54
2022/07/29 02:19:38;;;;;;;4.33;0.17;;;;;;;22.56;63.07;95291.03;4283352;33;20198;-55
2022/07/29 02:22:06;;;;;;;0.17;0.17;;;;;;;22.56;62.77;95286.41;4281455;33;20191;-54
2022/07/29 02:24:34;;;;;;;0.17;0.17;;;;;;;22.50;62.69;95287.88;4281967;33;20249;-53
2022/07/29 02:27:02;;;;;;;0.20;0.20;;;;;;;22.51;63.03;95278.62;4288868;33;20198;-53
2022/07/29 02:29:29;;;;;;;0.27;0.27;;;;;;;22.53;63.30;95281.72;4275199;33;20256;-50
2022/07/29 02:31:57;;;;;;;0.20;0.20;;;;;;;22.52;62.10;95282.09;4286643;33;20198;-52
2022/07/29 02:34:24;;;;;;;0.20;0.20;;;;;;;22.53;62.55;95280.94;4292427;33;20259;-53
2022/07/29 02:36:50;;;;;;;0.20;0.20;;;;;;;22.52;62.57;95280.19;4280203;33;20224;-53
2022/07/29 02:39:17;;;;;;;0.50;0.43;;;;;;;22.51;62.58;95278.62;4295198;33;20220;-52
2022/07/29 02:41:54;;;;;;;0.53;0.13;;;;;;;22.45;62.91;95271.97;4289587;33;20299;-52
2022/07/29 02:44:23;;;;;;;0.40;0.40;;;;;;;22.48;63.16;95273.94;4284804;33;20301;-52
2022/07/29 02:46:58;;;;;;;1.20;0.60;;;;;;;22.51;63.11;95275.13;4285815;33;20281;-51
2022/07/29 02:49:37;;;;;;;0.30;0.30;;;;;;;22.45;63.02;95274.69;4289803;33;20208;-53
2022/07/29 02:52:09;;;;;;;0.00;0.00;;;;;;;22.43;63.21;95277.00;4273895;33;20241;-54
2022/07/29 02:55:06;;;;;;;0.20;0.20;;;;;;;22.45;63.25;95273.91;4272191;33;20191;-53
2022/07/29 02:57:36;;;;;;;0.00;0.00;;;;;;;22.47;63.42;95279.72;4263891;33;20205;-51
2022/07/29 03:00:06;;;;;;;0.10;0.10;;;;;;;22.44;63.46;95267.75;4280604;33;20206;-51
2022/07/29 03:02:43;;;;;;;0.23;0.23;;;;;;;22.48;63.76;95279.34;4286719;33;20206;-51
2022/07/29 03:05:12;;;;;;;0.43;0.20;;;;;;;22.49;63.77;95272.78;4269966;33;20283;-52
2022/07/29 03:07:40;;;;;;;0.20;0.20;;;;;;;22.50;63.98;95270.88;4283547;33;20213;-51
2022/07/29 03:10:08;;;;;;;0.10;0.10;;;;;;;22.47;63.64;95271.59;4285150;33;20191;-56
2022/07/29 03:12:35;;;;;;;0.10;0.10;;;;;;;22.43;63.40;95268.13;4286082;33;20202;-53
2022/07/29 03:15:01;;;;;;;0.53;0.20;;;;;;;22.35;63.56;95278.06;4285059;33;20199;-54
2022/07/29 03:17:27;;;;;;;6.87;0.80;;;;;;;22.37;64.21;95275.78;4277546;33;20190;-53
2022/07/29 03:19:53;;;;;;;0.07;0.07;;;;;;;22.41;64.23;95267.69;4274727;33;20252;-53
2022/07/29 03:22:19;;;;;;;0.20;0.20;;;;;;;22.39;63.80;95276.19;4289635;33;20222;-53
2022/07/29 03:24:44;;;;;;;0.40;0.40;;;;;;;22.36;64.13;95276.91;4277718;33;20217;-50
2022/07/29 03:27:09;;;;;;;0.40;0.40;;;;;;;22.38;63.89;95274.63;4275238;33;20213;-53
2022/07/29 03:29:35;;;;;;;0.10;0.10;;;;;;;22.36;64.15;95268.81;4287977;33;20197;-49
2022/07/29 03:32:03;;;;;;;0.10;0.10;;;;;;;22.32;64.14;95267.97;4286576;33;20194;-50
2022/07/29 03:34:28;;;;;;;0.10;0.10;;;;;;;22.33;64.53;95272.25;4287170;33;20254;-52
2022/07/29 03:36:54;;;;;;;0.00;0.00;;;;;;;22.23;64.23;95272.91;4288483;33;20210;-53
2022/07/29 03:39:22;;;;;;;0.10;0.10;;;;;;;22.25;64.44;95268.66;4285043;33;20197;-54
2022/07/29 03:41:51;;;;;;;0.00;0.00;;;;;;;22.20;64.87;95268.25;4291053;33;20201;-50
2022/07/29 03:44:19;;;;;;;0.00;0.00;;;;;;;22.19;64.67;95267.47;4300510;33;20190;-51
2022/07/29 03:46:47;;;;;;;0.27;0.27;;;;;;;22.23;64.95;95268.28;4295730;33;20194;-49
2022/07/29 03:49:16;;;;;;;0.83;0.40;;;;;;;22.19;65.02;95272.88;4279869;33;20206;-50
2022/07/29 03:51:42;;;;;;;0.00;0.00;;;;;;;22.19;65.28;95274.78;4270188;33;20213;-51
2022/07/29 03:54:08;;;;;;;0.10;0.10;;;;;;;22.24;65.14;95274.44;4271951;33;20210;-54
2022/07/29 03:56:39;;;;;;;0.30;0.30;;;;;;;22.26;65.01;95277.56;4262186;33;20191;-51
2022/07/29 03:59:05;;;;;;;0.27;0.27;;;;;;;22.24;64.78;95280.63;4272054;33;20191;-53
2022/07/29 04:01:33;;;;;;;0.23;0.10;;;;;;;22.26;64.79;95288.38;4274330;33;20230;-51
2022/07/29 04:04:00;;;;;;;0.30;0.30;;;;;;;22.24;64.75;95279.84;4283336;33;20257;-50
2022/07/29 04:06:25;;;;;;;0.23;0.23;;;;;;;22.19;65.12;95283.69;4260467;33;20191;-52
2022/07/29 04:08:51;;;;;;;0.10;0.10;;;;;;;22.17;65.02;95285.97;4272688;33;20285;-52
2022/07/29 04:11:17;;;;;;;0.40;0.40;;;;;;;22.16;65.13;95284.41;4261350;33;20192;-51
2022/07/29 04:13:42;;;;;;;0.20;0.20;;;;;;;22.18;65.50;95286.75;4263056;33;20218;-54
2022/07/29 04:16:07;;;;;;;0.20;0.20;;;;;;;22.18;65.44;95284.06;4272031;33;20203;-54
2022/07/29 04:18:33;;;;;;;0.23;0.23;;;;;;;22.14;65.20;95283.22;4263951;33;20199;-52
2022/07/29 04:21:00;;;;;;;0.17;0.17;;;;;;;22.11;65.55;95276.63;4261739;33;20242;-51
2022/07/29 04:23:26;;;;;;;0.20;0.20;;;;;;;22.16;65.62;95289.03;4271701;33;20207;-48
2022/07/29 04:25:52;;;;;;;0.57;0.40;;;;;;;22.15;65.39;95284.78;4276244;33;20183;-53
2022/07/29 04:28:17;;;;;;;0.20;0.20;;;;;;;22.12;65.37;95282.81;4281436;33;20269;-51
2022/07/29 04:30:42;;;;;;;0.40;0.40;;;;;;;21.96;65.59;95280.28;4279032;33;20190;-52
2022/07/29 04:33:08;;;;;;;0.43;0.43;;;;;;;22.10;65.95;95290.50;4260433;33;20206;-52
2022/07/29 04:35:36;;;;;;;0.20;0.20;;;;;;;22.16;66.07;95294.44;4274747;33;20194;-54
2022/07/29 04:38:02;;;;;;;2.27;0.93;;;;;;;22.19;65.49;95296.41;4275951;33;20191;-51
2022/07/29 04:40:27;;;;;;;0.20;0.20;;;;;;;22.21;65.43;95299.53;4267042;33;20186;-49
2022/07/29 04:42:53;;;;;;;0.10;0.10;;;;;;;22.22;65.30;95303.78;4270291;33;20202;-49
2022/07/29 04:45:18;;;;;;;0.43;0.43;;;;;;;22.21;65.54;95305.72;4274145;33;20208;-51
2022/07/29 04:47:44;;;;;;;0.33;0.33;;;;;;;22.24;65.33;95307.66;4269267;33;20225;-51
2022/07/29 04:50:10;;;;;;;0.00;0.00;;;;;;;22.25;65.61;95308.44;4279908;33;20391;-53
2022/07/29 04:52:35;;;;;;;0.20;0.20;;;;;;;22.16;64.94;95313.37;4274740;33;20199;-53
2022/07/29 04:55:01;;;;;;;1.13;0.53;;;;;;;22.28;65.42;95305.00;4285892;33;20183;-52
2022/07/29 04:57:27;;;;;;;0.20;0.20;;;;;;;22.27;65.19;95306.16;4290131;33;20232;-52
2022/07/29 04:59:52;;;;;;;0.80;0.73;;;;;;;22.29;64.90;95309.25;4291937;33;20226;-51
2022/07/29 05:02:18;;;;;;;0.10;0.10;;;;;;;22.27;65.08;95316.97;4282245;33;20199;-48
2022/07/29 05:04:43;;;;;;;0.10;0.10;;;;;;;22.20;65.47;95312.28;4286614;33;20202;-51
2022/07/29 05:07:08;;;;;;;0.33;0.33;;;;;;;22.15;65.70;95320.69;4293457;33;20289;-51
2022/07/29 05:09:34;;;;;;;0.10;0.10;;;;;;;22.21;65.75;95313.03;4285410;33;20191;-50
2022/07/29 05:11:59;;;;;;;0.00;0.00;;;;;;;22.22;65.73;95323.50;4284589;33;20254;-52
2022/07/29 05:14:24;;;;;;;0.17;0.17;;;;;;;22.15;65.62;95326.09;4286572;33;20194;-53
2022/07/29 05:16:50;;;;;;;0.00;0.00;;;;;;;22.19;65.80;95321.53;4285489;33;20198;-52
2022/07/29 05:19:17;;;;;;;0.50;0.50;;;;;;;22.15;65.95;95326.09;4287552;33;20190;-53
2022/07/29 05:21:44;;;;;;;0.27;0.27;;;;;;;22.12;65.74;95326.81;4283742;33;20183;-52
2022/07/29 05:24:09;;;;;;;0.10;0.10;;;;;;;22.13;65.75;95327.59;4271303;33;20296;-52
2022/07/29 05:26:35;;;;;;;0.20;0.20;;;;;;;22.20;65.94;95323.09;4258542;33;20248;-50
2022/07/29 05:29:00;;;;;;;0.50;0.50;;;;;;;22.13;65.61;95322.19;4284724;33;20199;-52
2022/07/29 05:31:25;;;;;;;0.20;0.20;;;;;;;22.07;65.72;95318.25;4284673;33;20259;-54
2022/07/29 05:33:51;;;;;;;0.30;0.30;;;;;;;22.06;65.90;95325.59;4285734;33;20217;-50
2022/07/29 05:36:16;;;;;;;1.73;1.10;;;;;;;22.09;66.00;95326.78;4286647;33;20195;-49
2022/07/29 05:38:41;;;;;;;0.57;0.57;;;;;;;22.07;65.78;95337.16;4283535;33;20209;-49
2022/07/29 05:41:07;;;;;;;0.20;0.20;;;;;;;22.13;66.10;95338.41;4280272;33;20283;-51
2022/07/29 05:43:32;;;;;;;1.20;0.67;;;;;;;22.13;66.10;95338.41;4285723;33;20405;-47
2022/07/29 05:45:57;;;;;;;2.37;0.57;;;;;;;22.10;66.36;95333.75;4277373;33;20193;-47
2022/07/29 05:48:23;;;;;;;0.70;0.70;;;;;;;22.16;65.96;95338.47;4270958;33;20254;-49
2022/07/29 05:50:48;;;;;;;3.23;1.07;;;;;;;22.18;65.41;95348.91;4273729;33;20194;-48
2022/07/29 05:53:14;;;;;;;0.77;0.77;;;;;;;22.24;65.33;95347.44;4286780;33;20213;-48
2022/07/29 05:55:39;;;;;;;1.70;0.57;;;;;;;22.32;65.18;95346.38;4273590;33;20304;-50
2022/07/29 05:58:04;;;;;;;0.47;0.47;;;;;;;22.55;64.39;95349.75;4283530;33;20209;-48
2022/07/29 06:00:30;;;;;;;0.57;0.57;;;;;;;22.63;63.92;95351.41;4274172;33;20198;-49
2022/07/29 06:02:56;;;;;;;0.00;0.00;;;;;;;22.61;64.20;95345.59;4273689;33;20230;-46
2022/07/29 06:05:22;;;;;;;0.40;0.40;;;;;;;22.55;64.46;95344.34;4276455;33;20186;-50
2022/07/29 06:07:47;;;;;;;7.23;0.70;;;;;;;22.60;64.10;95349.44;4287516;33;20178;-46
2022/07/29 06:10:13;;;;;;;0.27;0.27;;;;;;;22.59;64.05;95356.00;4283663;33;20187;-50
2022/07/29 06:12:38;;;;;;;0.30;0.30;;;;;;;22.52;64.36;95355.12;4284173;33;20206;-49
2022/07/29 06:15:04;;;;;;;0.83;0.83;;;;;;;22.31;63.61;95344.81;4283343;33;20175;-48
2022/07/29 06:17:29;;;;;;;0.50;0.50;;;;;;;22.11;64.99;95346.88;4282709;33;20258;-48
2022/07/29 06:19:54;;;;;;;0.20;0.20;;;;;;;21.99;65.99;95346.31;4272472;33;20198;-51
2022/07/29 06:22:20;;;;;;;0.70;0.70;;;;;;;22.00;65.20;95348.69;4285312;33;20191;-51
2022/07/29 06:24:45;;;;;;;0.10;0.10;;;;;;;22.15;65.41;95346.94;4280199;33;20317;-49
2022/07/29 06:27:11;;;;;;;0.20;0.20;;;;;;;22.18;65.66;95346.22;4283430;33;20266;-51
2022/07/29 06:29:36;;;;;;;0.20;0.20;;;;;;;22.37;65.26;95348.75;4271012;33;20191;-51
2022/07/29 06:32:02;;;;;;;0.20;0.20;;;;;;;22.42;64.73;95345.75;4269451;33;20201;-50
2022/07/29 06:34:28;;;;;;;0.20;0.20;;;;;;;22.51;64.39;95354.34;4274792;33;20197;-48
2022/07/29 06:36:53;;;;;;;0.63;0.63;;;;;;;22.55;64.61;95349.75;4270873;33;20324;-48
2022/07/29 06:39:19;;;;;;;0.27;0.23;;;;;;;22.65;64.52;95350.25;4277512;33;20209;-51
2022/07/29 06:41:48;;;;;;;0.27;0.27;;;;;;;22.72;64.30;95358.44;4282803;33;20210;-50
2022/07/29 06:44:14;;;;;;;0.23;0.23;;;;;;;22.80;64.79;95352.75;4281201;33;20204;-47
2022/07/29 06:46:39;;;;;;;0.53;0.53;;;;;;;22.85;64.29;95346.25;4265893;33;20286;-48
2022/07/29 06:49:05;;;;;;;0.47;0.47;;;;;;;22.95;64.62;95350.97;4272324;33;20247;-50
2022/07/29 06:51:30;;;;;;;0.57;0.57;;;;;;;23.05;64.20;95355.72;4272042;33;20203;-46
2022/07/29 06:53:57;;;;;;;0.20;0.20;;;;;;;23.09;63.62;95355.75;4283864;33;20186;-50
2022/07/29 06:56:22;;;;;;;7.07;3.00;;;;;;;22.87;64.55;95358.22;4283159;33;20183;-50
2022/07/29 06:58:48;;;;;;;15.47;2.17;;;;;;;22.84;64.51;95363.62;4284257;33;20202;-49
2022/07/29 07:01:13;;;;;;;7.00;1.80;;;;;;;22.56;65.11;95364.84;4272921;33;20254;-50
2022/07/29 07:03:39;;;;;;;1.93;0.90;;;;;;;22.72;64.61;95366.53;4293713;33;20313;-50
2022/07/29 07:06:04;;;;;;;6.07;0.97;;;;;;;22.90;64.35;95367.53;4287185;33;20230;-47
2022/07/29 07:08:30;;;;;;;0.83;0.83;;;;;;;22.96;64.43;95369.56;4272806;33;20187;-49
2022/07/29 07:10:56;;;;;;;0.50;0.50;;;;;;;23.08;63.88;95370.41;4282236;33;20191;-49
2022/07/29 07:13:22;;;;;;;0.50;0.50;;;;;;;23.07;64.18;95380.47;4271837;33;20205;-53
2022/07/29 07:15:48;;;;;;;0.30;0.30;;;;;;;23.08;63.67;95373.13;4270943;33;20266;-51
2022/07/29 07:18:14;;;;;;;0.20;0.20;;;;;;;23.11;62.39;95375.88;4280966;33;20182;-49
2022/07/29 07:20:40;;;;;;;5.73;0.67;;;;;;;23.16;63.09;95374.75;4266232;33;20310;-48
2022/07/29 07:23:06;;;;;;;0.37;0.37;;;;;;;22.97;63.83;95375.75;4261114;33;20241;-49
2022/07/29 07:25:31;;;;;;;0.50;0.50;;;;;;;23.01;63.46;95371.16;4262471;33;20183;-57
2022/07/29 07:27:57;;;;;;;0.40;0.40;;;;;;;22.85;64.12;95368.69;4277038;33;20202;-52
2022/07/29 07:30:22;;;;;;;1.50;0.40;;;;;;;22.86;64.95;95359.37;4277176;33;20199;-52
2022/07/29 07:32:48;;;;;;;0.97;0.40;;;;;;;22.98;62.73;95365.69;4284434;33;20201;-56
2022/07/29 07:35:14;;;;;;;0.60;0.60;;;;;;;22.83;64.05;95362.84;4282457;33;20195;-54
2022/07/29 07:37:40;;;;;;;0.57;0.40;;;;;;;22.90;62.93;95362.91;4286700;33;20275;-50
2022/07/29 07:40:06;;;;;;;1.47;0.50;;;;;;;22.91;63.32;95369.88;4273761;33;20203;-50
2022/07/29 07:42:32;;;;;;;0.30;0.30;;;;;;;22.77;64.39;95366.22;4275949;33;20195;-51
2022/07/29 07:44:57;;;;;;;0.47;0.47;;;;;;;22.80;63.32;95369.00;4272483;33;20190;-52
2022/07/29 07:47:24;;;;;;;0.20;0.20;;;;;;;23.03;62.91;95363.44;4272737;33;20252;-51
2022/07/29 07:49:50;;;;;;;0.10;0.10;;;;;;;23.10;60.85;95368.91;4285998;33;20209;-57
2022/07/29 07:52:17;;;;;;;0.00;0.00;;;;;;;23.19;60.35;95360.50;4276139;33;20226;-55
2022/07/29 07:54:44;;;;;;;0.20;0.20;;;;;;;23.18;60.41;95359.72;4285915;33;20204;-51
2022/07/29 07:57:13;;;;;;;0.53;0.53;;;;;;;23.23;59.67;95362.09;4283868;33;20312;-56
2022/07/29 07:59:39;;;;;;;0.13;0.13;;;;;;;23.36;58.75;95361.78;4271412;33;20285;-52
2022/07/29 08:02:04;;;;;;;0.50;0.50;;;;;;;23.36;58.88;95361.78;4287420;33;20186;-53
2022/07/29 08:04:30;;;;;;;0.33;0.30;;;;;;;23.27;60.27;95362.13;4285039;33;20194;-56
2022/07/29 08:06:56;;;;;;;0.00;0.00;;;;;;;23.42;58.75;95363.00;4287441;33;20191;-54
2022/07/29 08:09:22;;;;;;;0.20;0.20;;;;;;;23.39;57.77;95361.81;4275575;33;20210;-55
2022/07/29 08:11:48;;;;;;;0.33;0.33;;;;;;;23.48;57.60;95364.22;4285895;33;20253;-52
2022/07/29 08:14:13;;;;;;;0.33;0.33;;;;;;;23.50;58.24;95367.31;4274121;33;20222;-52
2022/07/29 08:16:40;;;;;;;0.47;0.47;;;;;;;23.48;61.41;95366.94;4289075;33;20270;-48
2022/07/29 08:19:06;;;;;;;0.20;0.20;;;;;;;23.55;60.01;95367.00;4274418;33;20179;-49
2022/07/29 08:21:31;;;;;;;0.30;0.30;;;;;;;23.55;59.24;95373.19;4289345;33;20250;-51
2022/07/29 08:26:41;;;;;;;0.30;0.20;;;;;;;23.61;58.83;95377.13;4285764;33;20222;-51
2022/07/29 08:29:07;;;;;;;0.17;0.17;;;;;;;23.64;58.77;95381.03;4286503;33;20193;-48
2022/07/29 08:31:32;;;;;;;0.10;0.10;;;;;;;23.61;58.85;95371.72;4291600;33;20198;-50
2022/07/29 08:33:59;;;;;;;0.50;0.50;;;;;;;23.59;59.02;95365.09;4286648;33;20187;-50
2022/07/29 08:36:25;;;;;;;0.30;0.30;;;;;;;23.68;59.12;95373.72;4276101;33;20218;-51
2022/07/29 08:38:50;;;;;;;0.10;0.10;;;;;;;23.68;58.91;95365.56;4273258;33;20170;-53
2022/07/29 08:41:18;;;;;;;0.50;0.50;;;;;;;23.68;59.55;95371.00;4288293;33;20197;-48
2022/07/29 08:43:44;;;;;;;0.10;0.10;;;;;;;23.70;59.65;95374.09;4285860;33;20202;-50
2022/07/29 08:46:09;;;;;;;0.40;0.40;;;;;;;23.82;58.06;95371.09;4285173;33;20277;-49
2022/07/29 08:48:36;;;;;;;0.60;0.60;;;;;;;23.80;59.00;95367.97;4277411;33;20202;-53
2022/07/29 08:51:04;;;;;;;0.23;0.23;;;;;;;23.87;57.96;95373.44;4292341;33;20190;-52
2022/07/29 08:53:30;;;;;;;0.53;0.53;;;;;;;23.86;58.60;95377.31;4288979;33;20214;-52
2022/07/29 08:55:57;;;;;;;0.50;0.50;;;;;;;23.96;58.51;95363.03;4272954;33;20198;-51
2022/07/29 08:58:23;;;;;;;0.37;0.27;;;;;;;23.93;58.50;95366.50;4287566;33;20198;-52
2022/07/29 09:00:52;;;;;;;0.60;0.60;;;;;;;24.03;58.37;95375.09;4295127;33;20201;-49
2022/07/29 09:03:20;;;;;;;0.33;0.33;;;;;;;23.89;58.61;95376.56;4284153;33;20178;-49
2022/07/29 09:05:46;;;;;;;0.40;0.40;;;;;;;23.89;58.33;95381.22;4284491;33;20191;-52
2022/07/29 09:08:13;;;;;;;0.30;0.30;;;;;;;23.82;58.67;95392.78;4291585;33;20206;-51
2022/07/29 09:10:39;;;;;;;0.10;0.10;;;;;;;23.87;58.79;95388.94;4285047;33;20179;-52
2022/07/29 09:13:05;;;;;;;0.53;0.47;;;;;;;23.87;58.78;95394.34;4272999;33;20237;-51
2022/07/29 09:15:30;;;;;;;0.63;0.63;;;;;;;23.90;58.63;95388.94;4282702;33;20201;-51
2022/07/29 09:17:58;;;;;;;0.33;0.33;;;;;;;23.97;58.09;95388.22;4292342;33;20225;-50
2022/07/29 09:20:24;;;;;;;0.43;0.43;;;;;;;23.85;58.59;95383.88;4287470;33;20182;-51
2022/07/29 09:22:52;;;;;;;0.37;0.37;;;;;;;23.93;57.63;95382.00;4288832;33;20205;-61
2022/07/29 09:25:38;;;;;;;0.20;0.20;;;;;;;23.99;58.57;95389.41;4293311;33;20218;-53
2022/07/29 09:28:11;;;;;;;2.83;0.83;;;;;;;24.09;58.28;95381.72;4287174;33;20191;-52
2022/07/29 09:31:00;;;;;;;0.60;0.60;;;;;;;24.15;58.05;95377.47;4284830;33;20277;-52
2022/07/29 09:33:35;;;;;;;0.50;0.50;;;;;;;24.21;58.10;95381.38;4283215;33;20234;-51
2022/07/29 09:36:08;;;;;;;0.40;0.40;;;;;;;24.20;57.99;95371.69;4285652;33;20224;-51
2022/07/29 09:38:36;;;;;;;0.50;0.50;;;;;;;24.21;57.77;95365.91;4289729;33;20249;-49
2022/07/29 09:41:05;;;;;;;0.30;0.30;;;;;;;24.17;58.54;95364.31;4274892;33;20178;-52
2022/07/29 09:43:30;;;;;;;0.37;0.37;;;;;;;24.19;58.60;95367.44;4285572;33;20187;-50
2022/07/29 09:46:09;;;;;;;0.50;0.50;;;;;;;24.22;58.77;95372.09;4284375;33;20190;-52
2022/07/29 09:48:34;;;;;;;0.63;0.63;;;;;;;24.27;58.64;95369.06;4275636;33;20241;-49
2022/07/29 09:51:01;;;;;;;0.60;0.60;;;;;;;24.17;58.77;95375.94;4285261;33;20190;-51
2022/07/29 09:53:37;;;;;;;0.83;0.80;;;;;;;24.17;58.42;95367.81;4269058;33;20182;-49
2022/07/29 09:56:05;;;;;;;0.93;0.93;;;;;;;24.12;58.76;95364.66;4284815;33;20175;-51
2022/07/29 09:58:33;;;;;;;0.53;0.53;;;;;;;24.06;58.96;95374.34;4285207;33;20187;-50
2022/07/29 10:00:59;;;;;;;0.77;0.77;;;;;;;24.00;59.14;95365.78;4292926;33;20197;-51
2022/07/29 10:03:24;;;;;;;0.33;0.33;;;;;;;24.03;59.06;95369.66;4284986;33;20234;-51
2022/07/29 10:06:10;;;;;;;0.80;0.80;;;;;;;24.04;59.15;95368.50;4283817;33;20221;-52
2022/07/29 10:08:36;;;;;;;1.40;0.90;;;;;;;24.02;59.60;95368.13;4279562;33;20267;-48
2022/07/29 10:11:11;;;;;;;0.40;0.40;;;;;;;24.12;59.51;95364.66;4271791;33;20253;-48
2022/07/29 10:13:37;;;;;;;0.50;0.50;;;;;;;24.13;59.85;95363.50;4285266;33;20241;-52
2022/07/29 10:16:06;;;;;;;0.63;0.63;;;;;;;24.07;59.92;95365.06;4282489;33;20261;-48
2022/07/29 10:18:32;;;;;;;1.40;0.87;;;;;;;23.97;60.05;95364.59;4283432;33;20313;-49
2022/07/29 10:20:58;;;;;;;0.77;0.60;;;;;;;23.97;59.61;95366.53;4284761;33;20194;-54
2022/07/29 10:23:24;;;;;;;0.90;0.90;;;;;;;23.92;59.54;95372.31;4281924;33;20183;-52
2022/07/29 10:25:50;;;;;;;0.40;0.40;;;;;;;23.87;59.41;95367.25;4274886;33;20204;-50
2022/07/29 10:28:15;;;;;;;0.77;0.77;;;;;;;23.86;59.40;95373.81;4288935;33;20205;-50
2022/07/29 10:30:41;;;;;;;0.93;0.93;;;;;;;23.77;59.60;95368.72;4287816;33;20182;-51
2022/07/29 10:33:33;;;;;;;0.70;0.67;;;;;;;23.76;59.96;95371.81;4272545;33;20266;-49
2022/07/29 10:36:27;;;;;;;0.33;0.33;;;;;;;23.88;60.36;95369.59;4284984;33;20187;-51
2022/07/29 10:38:58;;;;;;;0.50;0.50;;;;;;;23.89;60.25;95367.66;4282360;33;20218;-52
2022/07/29 10:41:46;;;;;;;1.20;1.10;;;;;;;23.85;60.17;95372.28;4285041;33;20454;-52
2022/07/29 10:44:23;;;;;;;0.50;0.50;;;;;;;23.82;60.43;95364.88;4281991;33;20219;-50
2022/07/29 10:46:50;;;;;;;0.43;0.43;;;;;;;23.89;60.28;95363.00;4284242;33;20198;-50
2022/07/29 10:49:17;;;;;;;0.60;0.60;;;;;;;23.87;60.29;95361.84;4290825;33;20209;-49
2022/07/29 10:51:55;;;;;;;0.43;0.43;;;;;;;23.91;62.24;95363.38;4285598;33;20198;-52
2022/07/29 10:54:39;;;;;;;0.30;0.30;;;;;;;24.02;60.25;95365.41;4287080;33;20183;-51
2022/07/29 10:57:21;;;;;;;0.67;0.67;;;;;;;24.01;60.29;95361.91;4284572;33;20226;-51
2022/07/29 10:59:49;;;;;;;0.30;0.30;;;;;;;24.06;60.71;95356.12;4281932;33;20237;-53
2022/07/29 11:02:33;;;;;;;0.47;0.47;;;;;;;24.06;60.82;95363.50;4287395;33;20191;-50
2022/07/29 11:04:58;;;;;;;1.03;0.40;;;;;;;24.12;60.45;95345.69;4276164;33;20198;-51
2022/07/29 11:07:25;;;;;;;0.80;0.80;;;;;;;24.04;60.42;95354.97;4287620;33;20221;-49
2022/07/29 11:10:12;;;;;;;0.40;0.40;;;;;;;24.10;59.83;95359.66;4290261;33;20203;-50
2022/07/29 11:12:38;;;;;;;0.57;0.57;;;;;;;24.20;61.14;95356.22;4285476;33;20193;-52
2022/07/29 11:15:17;;;;;;;0.30;0.30;;;;;;;24.17;60.34;95353.47;4281005;33;20543;-48
2022/07/29 11:17:54;;;;;;;0.63;0.63;;;;;;;24.20;60.17;95358.13;4278643;33;20242;-51
2022/07/29 11:20:34;;;;;;;0.47;0.47;;;;;;;24.33;59.65;95353.97;4288891;33;20209;-61
2022/07/29 11:23:01;;;;;;;0.60;0.60;;;;;;;24.29;58.55;95351.25;4288503;33;20178;-49
2022/07/29 11:25:26;;;;;;;0.63;0.63;;;;;;;24.32;58.97;95350.47;4295208;33;20208;-48
2022/07/29 11:28:10;;;;;;;1.23;1.20;;;;;;;24.36;59.35;95353.22;4296863;33;20175;-51
2022/07/29 11:30:49;;;;;;;0.60;0.60;;;;;;;24.50;58.74;95342.44;4287592;33;20222;-50
2022/07/29 11:33:31;;;;;;;0.87;0.87;;;;;;;24.38;58.96;95341.97;4275944;33;20198;-51
2022/07/29 11:36:14;;;;;;;0.60;0.60;;;;;;;24.38;58.95;95331.13;4301428;33;20253;-52
2022/07/29 11:38:40;;;;;;;0.53;0.53;;;;;;;24.48;58.44;95343.97;4284484;33;20279;-48
2022/07/29 11:41:17;;;;;;;0.50;0.50;;;;;;;24.53;56.17;95338.94;4281199;33;20186;-51
2022/07/29 11:43:54;;;;;;;0.40;0.40;;;;;;;24.47;57.59;95335.06;4290987;33;20229;-53